createdAt,value
2018-02-13T00:02:20.879Z,9.15
2018-02-13T00:04:48.429Z,9.82
2018-02-13T00:07:15.926Z,8.38
2018-02-13T00:09:43.466Z,8.55
2018-02-13T00:12:10.997Z,9.13
2018-02-13T00:14:38.499Z,8.73
2018-02-13T00:17:06.035Z,10.13
2018-02-13T00:19:33.552Z,9.45
2018-02-13T00:22:01.812Z,9.00
2018-02-13T00:24:29.322Z,8.82
2018-02-13T00:26:56.834Z,9.05
2018-02-13T00:29:25.137Z,8.30
2018-02-13T00:31:52.655Z,8.60
2018-02-13T00:34:20.157Z,9.18
2018-02-13T00:36:47.683Z,9.05
2018-02-13T00:39:15.998Z,8.70
2018-02-13T00:41:43.493Z,8.80
2018-02-13T00:44:11.013Z,8.95
2018-02-13T00:46:38.518Z,8.90
2018-02-13T00:49:06.054Z,9.00
2018-02-13T00:51:33.623Z,8.43
2018-02-13T00:54:01.098Z,8.50
2018-02-13T00:56:28.621Z,8.50
2018-02-13T00:58:56.118Z,8.50
2018-02-13T01:01:23.621Z,8.23
2018-02-13T01:03:51.116Z,8.88
2018-02-13T01:06:18.641Z,9.32
2018-02-13T01:08:46.135Z,8.85
2018-02-13T01:11:13.803Z,9.20
2018-02-13T01:13:41.337Z,8.00
2018-02-13T01:16:08.839Z,8.55
2018-02-13T01:18:37.122Z,7.72
2018-02-13T01:21:05.431Z,8.13
2018-02-13T01:23:32.962Z,8.90
2018-02-13T01:26:01.222Z,7.57
2018-02-13T01:28:28.743Z,7.90
2018-02-13T01:30:56.254Z,8.25
2018-02-13T01:33:24.541Z,8.13
2018-02-13T01:35:52.079Z,7.30
2018-02-13T01:38:20.337Z,7.35
2018-02-13T01:40:48.624Z,7.90
2018-02-13T01:43:16.902Z,7.40
2018-02-13T01:45:44.404Z,7.30
2018-02-13T01:48:11.942Z,7.30
2018-02-13T01:50:40.214Z,7.18
2018-02-13T01:53:08.483Z,7.10
2018-02-13T01:55:36.806Z,7.45
2018-02-13T01:58:05.051Z,7.00
2018-02-13T02:00:32.543Z,7.12
2018-02-13T02:03:00.083Z,7.47
2018-02-13T02:05:27.598Z,7.82
2018-02-13T02:07:56.019Z,7.37
2018-02-13T02:10:23.594Z,7.65
2018-02-13T02:12:51.852Z,7.90
2018-02-13T02:15:19.358Z,8.77
2018-02-13T02:17:46.881Z,7.18
2018-02-13T02:20:14.374Z,8.15
2018-02-13T02:22:41.903Z,7.10
2018-02-13T02:25:09.436Z,8.00
2018-02-13T02:27:36.931Z,7.45
2018-02-13T02:30:04.451Z,6.87
2018-02-13T02:32:31.950Z,7.68
2018-02-13T02:34:59.455Z,6.90
2018-02-13T02:37:27.755Z,7.12
2018-02-13T02:39:55.277Z,6.87
2018-02-13T02:42:23.563Z,6.82
2018-02-13T02:44:51.824Z,7.28
2018-02-13T02:47:19.370Z,6.75
2018-02-13T02:49:46.874Z,7.25
2018-02-13T02:52:14.386Z,6.53
2018-02-13T02:54:41.910Z,6.72
2018-02-13T02:57:09.411Z,6.90
2018-02-13T02:59:37.674Z,6.45
2018-02-13T03:02:05.214Z,5.75
2018-02-13T03:04:32.707Z,6.00
2018-02-13T03:07:00.235Z,6.45
2018-02-13T03:09:27.734Z,6.35
2018-02-13T03:11:56.043Z,6.07
2018-02-13T03:14:23.574Z,5.57
2018-02-13T03:16:51.838Z,6.43
2018-02-13T03:19:20.126Z,6.12
2018-02-13T03:21:48.386Z,6.32
2018-02-13T03:24:16.680Z,6.87
2018-02-13T03:26:44.935Z,6.40
2018-02-13T03:29:12.459Z,7.12
2018-02-13T03:31:39.943Z,6.75
2018-02-13T03:34:07.432Z,6.62
2018-02-13T03:36:35.718Z,7.62
2018-02-13T03:39:03.219Z,6.10
2018-02-13T03:41:30.723Z,6.15
2018-02-13T03:43:59.022Z,6.78
2018-02-13T03:46:26.583Z,6.75
2018-02-13T03:48:54.083Z,6.37
2018-02-13T03:51:21.620Z,6.43
2018-02-13T03:53:49.132Z,6.85
2018-02-13T03:56:17.410Z,7.30
2018-02-13T03:58:45.697Z,7.10
2018-02-13T04:01:13.226Z,6.85
2018-02-13T04:03:40.747Z,7.28
2018-02-13T04:06:08.278Z,6.72
2018-02-13T04:08:35.774Z,6.40
2018-02-13T04:11:03.282Z,6.47
2018-02-13T04:13:31.558Z,6.40
2018-02-13T04:15:59.095Z,6.18
2018-02-13T04:18:26.574Z,6.40
2018-02-13T04:20:54.876Z,6.05
2018-02-13T04:23:22.386Z,6.03
2018-02-13T04:25:50.681Z,6.68
2018-02-13T04:28:18.940Z,6.00
2018-02-13T04:30:46.498Z,6.32
2018-02-13T04:33:14.044Z,6.22
2018-02-13T04:35:41.662Z,6.30
2018-02-13T04:38:09.151Z,6.35
2018-02-13T04:40:36.649Z,6.05
2018-02-13T04:43:04.949Z,6.03
2018-02-13T04:45:32.440Z,6.28
2018-02-13T04:47:59.931Z,6.32
2018-02-13T04:50:28.234Z,6.82
2018-02-13T04:52:55.750Z,6.50
2018-02-13T04:55:23.280Z,6.62
2018-02-13T04:57:50.780Z,7.32
2018-02-13T05:00:18.470Z,6.43
2018-02-13T05:02:45.981Z,7.00
2018-02-13T05:05:13.511Z,6.47
2018-02-13T05:07:41.050Z,6.85
2018-02-13T05:10:08.542Z,5.70
2018-02-13T05:12:36.055Z,6.62
2018-02-13T05:15:04.308Z,6.50
2018-02-13T05:17:31.814Z,6.30
2018-02-13T05:19:59.306Z,6.15
2018-02-13T05:22:26.847Z,5.85
2018-02-13T05:24:54.381Z,6.60
2018-02-13T05:27:21.877Z,6.32
2018-02-13T05:29:49.401Z,5.95
2018-02-13T05:32:16.895Z,5.65
2018-02-13T05:34:44.396Z,4.72
2018-02-13T05:37:11.976Z,6.00
2018-02-13T05:39:39.474Z,5.25
2018-02-13T05:42:06.992Z,5.80
2018-02-13T05:44:34.618Z,5.90
2018-02-13T05:47:02.876Z,5.80
2018-02-13T05:49:30.370Z,6.03
2018-02-13T05:51:57.925Z,5.75
2018-02-13T05:54:26.180Z,6.12
2018-02-13T05:56:53.689Z,5.72
2018-02-13T05:59:21.199Z,6.30
2018-02-13T06:01:48.744Z,5.82
2018-02-13T06:04:16.270Z,4.97
2018-02-13T06:06:43.755Z,5.40
2018-02-13T06:09:11.258Z,5.50
2018-02-13T06:11:38.767Z,5.80
2018-02-13T06:14:06.272Z,5.47
2018-02-13T06:16:33.803Z,4.90
2018-02-13T06:19:01.310Z,5.50
2018-02-13T06:21:28.804Z,5.20
2018-02-13T06:23:56.319Z,4.80
2018-02-13T06:26:23.805Z,4.70
2018-02-13T06:28:51.439Z,5.72
2018-02-13T06:31:18.948Z,5.32
2018-02-13T06:33:46.502Z,4.65
2018-02-13T06:36:14.117Z,5.50
2018-02-13T06:38:41.643Z,5.07
2018-02-13T06:41:09.900Z,4.85
2018-02-13T06:43:37.414Z,5.30
2018-02-13T06:46:04.917Z,5.15
2018-02-13T06:48:32.424Z,4.97
2018-02-13T06:50:59.972Z,5.55
2018-02-13T06:53:27.481Z,4.05
2018-02-13T06:55:54.997Z,5.15
2018-02-13T06:58:22.482Z,4.57
2018-02-13T07:00:50.005Z,5.12
2018-02-13T07:03:17.498Z,4.60
2018-02-13T07:05:45.035Z,4.30
2018-02-13T07:08:12.552Z,4.68
2018-02-13T07:10:40.031Z,4.25
2018-02-13T07:13:08.288Z,5.00
2018-02-13T07:15:35.786Z,5.20
2018-02-13T07:18:03.279Z,4.70
2018-02-13T07:20:30.838Z,4.47
2018-02-13T07:22:58.327Z,4.40
2018-02-13T07:25:26.622Z,4.53
2018-02-13T07:27:54.128Z,3.90
2018-02-13T07:30:21.639Z,4.32
2018-02-13T07:32:49.163Z,4.57
2018-02-13T07:35:16.645Z,4.32
2018-02-13T07:37:44.962Z,3.90
2018-02-13T07:40:12.474Z,3.95
2018-02-13T07:42:40.759Z,4.22
2018-02-13T07:45:09.020Z,4.30
2018-02-13T07:47:37.322Z,3.75
2018-02-13T07:50:04.827Z,4.47
2018-02-13T07:52:32.335Z,3.83
2018-02-13T07:54:59.846Z,4.00
2018-02-13T07:57:27.369Z,4.35
2018-02-13T07:59:54.854Z,3.80
2018-02-13T08:02:22.363Z,4.47
2018-02-13T08:04:49.897Z,3.85
2018-02-13T08:07:18.151Z,4.60
2018-02-13T08:09:45.674Z,4.47
2018-02-13T08:12:13.175Z,3.83
2018-02-13T08:14:40.687Z,4.18
2018-02-13T08:17:08.201Z,4.15
2018-02-13T08:19:35.723Z,4.25
2018-02-13T08:22:03.242Z,4.20
2018-02-13T08:24:31.546Z,4.72
2018-02-13T08:26:59.070Z,4.72
2018-02-13T08:29:27.357Z,4.37
2018-02-13T08:31:54.874Z,4.05
2018-02-13T08:34:22.575Z,4.53
2018-02-13T08:36:50.872Z,4.40
2018-02-13T08:39:18.355Z,4.47
2018-02-13T08:41:45.902Z,3.55
2018-02-13T08:44:13.383Z,3.55
2018-02-13T08:46:40.878Z,5.22
2018-02-13T08:49:09.181Z,4.00
2018-02-13T08:51:40.869Z,4.35
2018-02-13T08:54:08.388Z,3.92
2018-02-13T08:56:35.935Z,4.28
2018-02-13T08:59:04.212Z,3.83
2018-02-13T09:01:31.767Z,4.70
2018-02-13T09:04:00.033Z,4.05
2018-02-13T09:06:28.350Z,6.00
2018-02-13T09:08:55.884Z,5.70
2018-02-13T09:11:24.150Z,4.20
2018-02-13T09:13:52.443Z,5.82
2018-02-13T09:16:19.947Z,6.93
2018-02-13T09:18:47.481Z,8.05
2018-02-13T09:21:14.986Z,4.85
2018-02-13T09:23:43.289Z,5.60
2018-02-13T09:26:10.795Z,3.53
2018-02-13T09:28:38.285Z,7.75
2018-02-13T09:31:06.603Z,5.55
2018-02-13T09:33:34.140Z,8.30
2018-02-13T09:36:01.690Z,4.18
2018-02-13T09:38:30.773Z,4.00
2018-02-13T09:40:59.141Z,3.80
2018-02-13T09:43:26.631Z,3.67
2018-02-13T09:45:54.172Z,4.85
2018-02-13T09:48:22.459Z,3.90
2018-02-13T09:50:50.719Z,3.65
2018-02-13T09:53:19.001Z,3.45
2018-02-13T09:55:47.301Z,3.25
2018-02-13T09:58:14.809Z,5.10
2018-02-13T10:00:43.053Z,4.20
2018-02-13T10:03:10.574Z,3.85
2018-02-13T10:05:38.903Z,4.03
2018-02-13T10:08:06.446Z,3.97
2018-02-13T10:10:33.949Z,3.53
2018-02-13T10:13:01.463Z,3.47
2018-02-13T10:15:29.037Z,3.53
2018-02-13T10:17:56.545Z,3.67
2018-02-13T10:20:24.067Z,4.18
2018-02-13T10:22:51.624Z,3.62
2018-02-13T10:25:19.135Z,3.78
2018-02-13T10:27:46.652Z,3.30
2018-02-13T10:30:14.181Z,3.40
2018-02-13T10:32:41.710Z,3.85
2018-02-13T10:35:09.231Z,3.40
2018-02-13T10:37:36.719Z,3.00
2018-02-13T10:40:04.999Z,2.95
2018-02-13T10:42:32.553Z,2.60
2018-02-13T10:45:00.080Z,3.67
2018-02-13T10:47:27.604Z,2.08
2018-02-13T10:49:55.138Z,2.78
2018-02-13T10:52:22.641Z,2.70
2018-02-13T10:54:50.163Z,2.50
2018-02-13T10:57:17.655Z,2.87
2018-02-13T10:59:45.192Z,2.92
2018-02-13T11:02:18.578Z,3.45
2018-02-13T11:04:46.144Z,3.22
2018-02-13T11:07:13.671Z,2.87
2018-02-13T11:09:41.940Z,2.80
2018-02-13T11:12:10.241Z,2.75
2018-02-13T11:14:37.758Z,3.50
2018-02-13T11:17:05.280Z,1.50
2018-02-13T11:19:32.777Z,1.60
2018-02-13T11:22:01.046Z,1.63
2018-02-13T11:24:28.573Z,1.57
2018-02-13T11:26:56.075Z,1.43
2018-02-13T11:29:23.568Z,1.27
2018-02-13T11:31:51.092Z,1.30
2018-02-13T11:34:19.349Z,1.50
2018-02-13T11:36:46.864Z,1.40
2018-02-13T11:39:15.187Z,1.47
2018-02-13T11:41:49.915Z,1.70
2018-02-13T11:44:22.856Z,1.43
2018-02-13T11:46:50.366Z,1.50
2018-02-13T11:49:17.917Z,1.37
2018-02-13T11:51:45.426Z,1.83
2018-02-13T11:54:12.929Z,1.50
2018-02-13T11:56:40.436Z,1.30
2018-02-13T11:59:07.969Z,1.98
2018-02-13T12:01:35.468Z,1.40
2018-02-13T12:04:02.987Z,2.00
2018-02-13T12:06:30.621Z,1.80
2018-02-13T12:08:58.120Z,1.70
2018-02-13T12:11:26.369Z,1.70
2018-02-13T12:13:54.678Z,1.43
2018-02-13T12:16:22.187Z,2.10
2018-02-13T12:18:49.705Z,1.70
2018-02-13T12:21:17.234Z,1.73
2018-02-13T12:23:45.538Z,3.13
2018-02-13T12:26:13.068Z,1.53
2018-02-13T12:28:41.327Z,2.20
2018-02-13T12:31:08.847Z,1.60
2018-02-13T12:33:36.374Z,1.40
2018-02-13T12:36:04.868Z,1.60
2018-02-13T12:38:32.363Z,1.70
2018-02-13T12:40:59.910Z,2.00
2018-02-13T12:43:27.406Z,1.70
2018-02-13T12:45:55.102Z,1.70
2018-02-13T12:48:22.814Z,2.10
2018-02-13T12:50:50.359Z,2.30
2018-02-13T12:53:17.926Z,2.70
2018-02-13T12:55:47.058Z,2.60
2018-02-13T12:58:15.358Z,1.93
2018-02-13T13:00:42.879Z,2.10
2018-02-13T13:03:10.422Z,1.90
2018-02-13T13:05:37.971Z,2.23
2018-02-13T13:08:05.487Z,2.10
2018-02-13T13:10:33.771Z,2.10
2018-02-13T13:13:01.286Z,2.60
2018-02-13T13:15:32.282Z,2.23
2018-02-13T13:17:59.803Z,2.17
2018-02-13T13:20:28.191Z,2.60
2018-02-13T13:22:56.557Z,1.83
2018-02-13T13:25:24.917Z,2.10
2018-02-13T13:27:52.454Z,3.47
2018-02-13T13:30:19.961Z,2.60
2018-02-13T13:32:47.753Z,2.10
2018-02-13T13:35:15.493Z,2.77
2018-02-13T13:37:43.059Z,2.37
2018-02-13T13:40:10.583Z,1.90
2018-02-13T13:42:38.092Z,2.50
2018-02-13T13:45:05.645Z,2.30
2018-02-13T13:47:33.143Z,2.27
2018-02-13T13:50:00.656Z,2.10
2018-02-13T13:52:28.171Z,1.90
2018-02-13T13:54:55.696Z,2.33
2018-02-13T13:57:23.232Z,2.30
2018-02-13T13:59:50.779Z,2.03
2018-02-13T14:02:20.920Z,2.13
2018-02-13T14:04:48.434Z,1.67
2018-02-13T14:07:15.970Z,2.57
2018-02-13T14:09:43.449Z,2.30
2018-02-13T14:12:10.999Z,2.83
2018-02-13T14:14:38.530Z,2.10
2018-02-13T14:17:06.051Z,2.60
2018-02-13T14:19:34.346Z,2.40
2018-02-13T14:22:01.884Z,2.47
2018-02-13T14:24:30.178Z,2.30
2018-02-13T14:26:57.701Z,2.23
2018-02-13T14:29:25.990Z,2.53
2018-02-13T14:31:54.291Z,2.30
2018-02-13T14:34:21.823Z,3.00
2018-02-13T14:36:50.080Z,2.10
2018-02-13T14:39:17.717Z,2.90
2018-02-13T14:41:45.231Z,2.20
2018-02-13T14:44:13.505Z,2.43
2018-02-13T14:46:41.823Z,2.47
2018-02-13T14:49:09.326Z,2.80
2018-02-13T14:51:36.850Z,2.67
2018-02-13T14:54:04.379Z,2.90
2018-02-13T14:56:31.876Z,2.90
2018-02-13T14:58:59.406Z,3.10
2018-02-13T15:01:26.902Z,3.23
2018-02-13T15:03:54.440Z,3.17
2018-02-13T15:06:21.943Z,3.47
2018-02-13T15:08:50.252Z,4.27
2018-02-13T15:11:17.753Z,2.80
2018-02-13T15:13:45.274Z,2.70
2018-02-13T15:16:12.860Z,2.85
2018-02-13T15:18:42.160Z,3.28
2018-02-13T15:21:09.699Z,3.10
2018-02-13T15:23:37.218Z,3.13
2018-02-13T15:26:05.471Z,3.07
2018-02-13T15:28:32.991Z,3.55
2018-02-13T15:31:00.508Z,3.00
2018-02-13T15:33:28.792Z,3.12
2018-02-13T15:35:56.331Z,3.25
2018-02-13T15:38:24.624Z,3.05
2018-02-13T15:40:52.886Z,3.75
2018-02-13T15:43:21.176Z,3.10
2018-02-13T15:45:49.435Z,3.10
2018-02-13T15:48:17.734Z,4.53
2018-02-13T15:50:45.257Z,4.95
2018-02-13T15:53:12.792Z,3.58
2018-02-13T15:55:40.318Z,4.28
2018-02-13T15:58:07.846Z,3.80
2018-02-13T16:00:36.157Z,4.10
2018-02-13T16:03:03.692Z,4.97
2018-02-13T16:05:31.217Z,3.80
2018-02-13T16:07:59.032Z,5.62
2018-02-13T16:10:26.819Z,4.43
2018-02-13T16:12:54.354Z,4.37
2018-02-13T16:15:21.911Z,4.40
2018-02-13T16:17:50.186Z,4.40
2018-02-13T16:20:18.083Z,3.50
2018-02-13T16:22:45.669Z,4.68
2018-02-13T16:25:13.170Z,4.30
2018-02-13T16:27:40.661Z,4.10
2018-02-13T16:30:08.185Z,4.72
2018-02-13T16:32:36.474Z,3.55
2018-02-13T16:35:03.992Z,3.30
2018-02-13T16:37:31.507Z,3.78
2018-02-13T16:39:59.037Z,3.85
2018-02-13T16:42:26.549Z,4.80
2018-02-13T16:44:54.087Z,4.05
2018-02-13T16:47:21.589Z,4.03
2018-02-13T16:49:49.106Z,4.10
2018-02-13T16:52:16.623Z,3.90
2018-02-13T16:54:44.910Z,3.95
2018-02-13T16:57:12.424Z,3.47
2018-02-13T16:59:39.958Z,4.10
2018-02-13T17:02:07.474Z,3.90
2018-02-13T17:04:35.730Z,4.50
2018-02-13T17:07:03.280Z,4.00
2018-02-13T17:09:30.849Z,3.33
2018-02-13T17:11:59.163Z,3.95
2018-02-13T17:14:26.678Z,3.90
2018-02-13T17:16:54.192Z,3.60
2018-02-13T17:19:21.720Z,3.55
2018-02-13T17:21:49.999Z,3.15
2018-02-13T17:24:18.283Z,3.47
2018-02-13T17:26:46.547Z,3.17
2018-02-13T17:29:14.830Z,3.80
2018-02-13T17:31:43.144Z,3.70
2018-02-13T17:34:10.637Z,3.67
2018-02-13T17:36:38.151Z,3.50
2018-02-13T17:39:05.713Z,3.40
2018-02-13T17:41:33.218Z,3.50
2018-02-13T17:44:00.734Z,3.35
2018-02-13T17:46:28.294Z,5.22
2018-02-13T17:48:55.810Z,3.92
2018-02-13T17:51:23.415Z,4.07
2018-02-13T17:53:50.937Z,4.00
2018-02-13T17:56:18.477Z,3.90
2018-02-13T17:58:45.994Z,5.87
2018-02-13T18:01:14.276Z,5.45
2018-02-13T18:03:41.817Z,4.90
2018-02-13T18:06:09.339Z,4.53
2018-02-13T18:08:37.634Z,5.35
2018-02-13T18:11:05.190Z,5.15
2018-02-13T18:13:32.707Z,5.82
2018-02-13T18:16:00.232Z,5.40
2018-02-13T18:18:27.752Z,5.25
2018-02-13T18:20:56.019Z,5.85
2018-02-13T18:23:24.319Z,5.45
2018-02-13T18:25:51.849Z,5.95
2018-02-13T18:28:19.350Z,8.15
2018-02-13T18:30:46.952Z,8.00
2018-02-13T18:33:14.481Z,7.28
2018-02-13T18:35:41.985Z,6.05
2018-02-13T18:38:09.517Z,6.62
2018-02-13T18:40:37.179Z,6.65
2018-02-13T18:43:04.744Z,6.45
2018-02-13T18:45:32.714Z,6.03
2018-02-13T18:48:00.232Z,5.10
2018-02-13T18:50:27.825Z,7.40
2018-02-13T18:55:23.028Z,7.43
2018-02-13T18:57:51.146Z,6.57
2018-02-13T19:00:18.959Z,7.90
2018-02-13T19:02:46.540Z,6.10
2018-02-13T19:05:14.336Z,6.30
2018-02-13T19:07:41.854Z,6.60
2018-02-13T19:10:10.003Z,6.28
2018-02-13T19:12:38.797Z,6.12
2018-02-13T19:15:07.403Z,6.18
2018-02-13T19:17:35.014Z,8.65
2018-02-13T19:20:02.562Z,6.60
2018-02-13T19:22:30.081Z,6.82
2018-02-13T19:24:57.605Z,6.10
2018-02-13T19:27:25.170Z,7.32
2018-02-13T19:29:52.721Z,7.40
2018-02-13T19:32:21.036Z,6.93
2018-02-13T19:34:48.741Z,5.95
2018-02-13T19:37:16.262Z,6.20
2018-02-13T19:39:43.986Z,6.72
2018-02-13T19:42:11.606Z,8.55
2018-02-13T19:44:39.120Z,7.68
2018-02-13T19:47:06.651Z,7.22
2018-02-13T19:49:34.939Z,6.68
2018-02-13T19:52:02.495Z,6.80
2018-02-13T19:54:30.004Z,6.55
2018-02-13T19:56:57.531Z,6.60
2018-02-13T19:59:25.058Z,6.80
2018-02-13T20:01:53.470Z,6.97
2018-02-13T20:04:20.992Z,6.78
2018-02-13T20:06:49.293Z,7.37
2018-02-13T20:09:16.811Z,6.70
2018-02-13T20:11:44.325Z,6.72
2018-02-13T20:14:13.324Z,7.12
2018-02-13T20:16:40.974Z,7.37
2018-02-13T20:19:08.498Z,7.87
2018-02-13T20:21:36.772Z,7.70
2018-02-13T20:24:05.229Z,7.62
2018-02-13T20:26:33.231Z,7.37
2018-02-13T20:29:03.177Z,7.00
2018-02-13T20:31:30.684Z,7.30
2018-02-13T20:33:58.471Z,7.93
2018-02-13T20:36:26.858Z,7.32
2018-02-13T20:38:54.629Z,7.20
2018-02-13T20:41:22.154Z,7.53
2018-02-13T20:43:50.458Z,7.50
2018-02-13T20:46:18.183Z,8.65
2018-02-13T20:48:45.887Z,8.88
2018-02-13T20:51:13.435Z,7.68
2018-02-13T20:53:41.716Z,7.60
2018-02-13T20:56:09.271Z,8.07
2018-02-13T20:58:37.578Z,7.30
2018-02-13T21:01:05.815Z,7.00
2018-02-13T21:03:34.129Z,7.55
2018-02-13T21:06:01.662Z,7.78
2018-02-13T21:08:29.996Z,7.40
2018-02-13T21:10:57.522Z,7.50
2018-02-13T21:13:26.187Z,8.45
2018-02-13T21:15:53.728Z,8.10
2018-02-13T21:18:22.003Z,7.70
2018-02-13T21:20:49.531Z,8.25
2018-02-13T21:23:17.036Z,7.25
2018-02-13T21:25:45.341Z,8.05
2018-02-13T21:28:12.875Z,7.65
2018-02-13T21:30:40.992Z,7.70
2018-02-13T21:33:08.540Z,9.20
2018-02-13T21:35:36.072Z,8.15
2018-02-13T21:38:03.610Z,8.25
2018-02-13T21:40:31.903Z,8.40
2018-02-13T21:42:59.439Z,7.93
2018-02-13T21:45:27.710Z,8.90
2018-02-13T21:47:55.239Z,8.85
2018-02-13T21:50:22.791Z,7.28
2018-02-13T21:52:50.295Z,8.35
2018-02-13T21:55:18.585Z,8.50
2018-02-13T21:57:46.133Z,7.53
2018-02-13T22:00:14.409Z,8.13
2018-02-13T22:02:42.707Z,8.38
2018-02-13T22:05:10.273Z,8.07
2018-02-13T22:07:37.823Z,8.95
2018-02-13T22:10:05.333Z,12.73
2018-02-13T22:12:32.854Z,11.20
2018-02-13T22:15:00.363Z,8.73
2018-02-13T22:17:27.857Z,9.60
2018-02-13T22:19:55.387Z,9.48
2018-02-13T22:22:23.664Z,9.85
2018-02-13T22:24:51.975Z,9.48
2018-02-13T22:27:19.527Z,10.30
2018-02-13T22:29:47.036Z,9.45
2018-02-13T22:32:14.556Z,9.50
2018-02-13T22:34:42.099Z,10.00
2018-02-13T22:37:09.587Z,9.73
2018-02-13T22:39:37.098Z,10.05
2018-02-13T22:42:05.408Z,10.38
2018-02-13T22:44:32.932Z,9.75
2018-02-13T22:47:01.231Z,10.50
2018-02-13T22:49:28.746Z,10.00
2018-02-13T22:51:56.247Z,9.88
2018-02-13T22:54:23.777Z,10.40
2018-02-13T22:56:52.073Z,10.50
2018-02-13T22:59:20.367Z,9.32
2018-02-13T23:01:47.887Z,9.93
2018-02-13T23:04:15.392Z,9.25
2018-02-13T23:06:42.921Z,10.52
2018-02-13T23:09:11.229Z,10.20
2018-02-13T23:11:38.766Z,10.15
2018-02-13T23:14:06.322Z,9.85
2018-02-13T23:16:34.602Z,8.95
2018-02-13T23:19:02.112Z,10.65
2018-02-13T23:21:29.678Z,10.07
2018-02-13T23:23:57.172Z,11.60
2018-02-13T23:26:25.450Z,10.05
2018-02-13T23:28:53.737Z,10.40
2018-02-13T23:31:21.271Z,10.00
2018-02-13T23:33:49.541Z,9.45
2018-02-13T23:36:17.073Z,10.30
2018-02-13T23:38:44.593Z,10.48
2018-02-13T23:41:12.149Z,10.45
2018-02-13T23:43:39.662Z,9.85
2018-02-13T23:46:07.170Z,10.18
2018-02-13T23:48:34.702Z,10.38
2018-02-13T23:51:02.975Z,10.05
2018-02-13T23:53:31.259Z,10.25
2018-02-13T23:55:58.826Z,9.98
2018-02-13T23:58:27.096Z,9.55
